createdAt,value
2019-02-18T00:01:51.858Z,0.00
2019-02-18T00:04:40.896Z,0.00
2019-02-18T00:07:29.088Z,0.00
2019-02-18T00:10:18.284Z,-0.10
2019-02-18T00:13:09.603Z,-0.10
2019-02-18T00:15:58.092Z,-0.10
2019-02-18T00:18:47.957Z,-0.20
2019-02-18T00:21:46.854Z,-0.20
2019-02-18T00:24:36.426Z,-0.20
2019-02-18T00:30:19.430Z,-0.20
2019-02-18T00:33:08.938Z,-0.20
2019-02-18T00:35:57.907Z,-0.30
2019-02-18T00:41:37.981Z,-0.30
2019-02-18T00:44:27.083Z,-0.40
2019-02-18T00:47:15.927Z,-0.40
2019-02-18T00:52:55.941Z,-0.50
2019-02-18T00:55:44.699Z,-0.50
2019-02-18T00:58:32.444Z,-0.50
2019-02-18T01:04:14.921Z,-0.60
2019-02-18T01:07:07.979Z,-0.60
2019-02-18T01:09:56.345Z,-0.60
2019-02-18T01:19:08.578Z,-0.50
2019-02-18T01:21:56.761Z,-0.50
2019-02-18T01:24:45.440Z,-0.40
2019-02-18T01:27:34.000Z,-0.30
2019-02-18T01:30:23.323Z,-0.10
2019-02-18T01:33:14.640Z,-0.10
2019-02-18T01:36:03.150Z,0.00
2019-02-18T01:38:53.504Z,0.00
2019-02-18T01:41:43.315Z,0.00
2019-02-18T01:44:32.949Z,-0.10
2019-02-18T01:47:21.979Z,-0.20
2019-02-18T01:56:27.424Z,-0.40
2019-02-18T01:59:15.561Z,-0.50
2019-02-18T02:02:03.981Z,-0.60
2019-02-18T02:04:52.140Z,-0.60
2019-02-18T02:07:40.655Z,-0.70
2019-02-18T02:10:29.519Z,-0.80
2019-02-18T02:16:05.029Z,-0.90
2019-02-18T02:18:53.457Z,-0.90
2019-02-18T02:21:42.592Z,-1.00
2019-02-18T02:24:31.045Z,-1.00
2019-02-18T02:27:19.728Z,-1.00
2019-02-18T02:30:09.612Z,-1.00
2019-02-18T02:32:57.520Z,-1.10
2019-02-18T02:35:45.950Z,-1.10
2019-02-18T02:38:34.576Z,-1.20
2019-02-18T02:44:16.201Z,-1.30
2019-02-18T02:47:04.796Z,-1.30
2019-02-18T02:49:53.471Z,-1.40
2019-02-18T02:52:41.864Z,-1.40
2019-02-18T02:55:30.333Z,-1.50
2019-02-18T02:58:18.711Z,-1.50
2019-02-18T03:01:07.452Z,-1.60
2019-02-18T03:03:55.892Z,-1.60
2019-02-18T03:09:31.167Z,-1.60
2019-02-18T03:12:19.541Z,-1.60
2019-02-18T03:15:09.086Z,-1.70
2019-02-18T03:17:59.882Z,-1.70
2019-02-18T03:20:48.304Z,-1.70
2019-02-18T03:26:28.377Z,-1.70
2019-02-18T03:32:11.220Z,-1.70
2019-02-18T03:35:00.669Z,-1.70
2019-02-18T03:37:49.596Z,-1.70
2019-02-18T03:43:29.690Z,-1.70
2019-02-18T03:46:18.072Z,-1.70
2019-02-18T03:49:06.926Z,-1.80
2019-02-18T03:51:55.510Z,-1.80
2019-02-18T03:57:35.740Z,-1.80
2019-02-18T04:00:24.084Z,-1.90
2019-02-18T04:03:12.335Z,-1.90
2019-02-18T04:06:00.907Z,-1.90
2019-02-18T04:08:49.186Z,-1.90
2019-02-18T04:14:42.915Z,-1.90
2019-02-18T04:17:31.571Z,-1.90
2019-02-18T04:23:15.486Z,-2.00
2019-02-18T04:26:04.629Z,-2.00
2019-02-18T04:28:55.921Z,-2.10
2019-02-18T04:34:36.615Z,-2.10
2019-02-18T04:37:24.806Z,-2.20
2019-02-18T04:40:13.235Z,-2.20
2019-02-18T04:43:01.759Z,-2.30
2019-02-18T04:45:49.917Z,-2.30
2019-02-18T04:48:38.224Z,-2.30
2019-02-18T04:51:27.009Z,-2.40
2019-02-18T04:54:15.140Z,-2.40
2019-02-18T04:57:03.562Z,-2.40
2019-02-18T04:59:51.382Z,-2.40
2019-02-18T05:02:39.490Z,-2.40
2019-02-18T05:05:28.018Z,-2.50
2019-02-18T05:08:16.455Z,-2.50
2019-02-18T05:11:04.228Z,-2.50
2019-02-18T05:13:53.084Z,-2.60
2019-02-18T05:22:39.680Z,-2.60
2019-02-18T05:28:22.779Z,-2.70
2019-02-18T05:31:11.704Z,-2.70
2019-02-18T05:33:59.421Z,-2.70
2019-02-18T05:36:47.230Z,-2.80
2019-02-18T05:39:37.236Z,-2.80
2019-02-18T05:42:25.799Z,-2.80
2019-02-18T05:45:15.095Z,-2.90
2019-02-18T05:48:03.135Z,-2.90
2019-02-18T05:50:51.992Z,-2.90
2019-02-18T05:53:40.288Z,-2.90
2019-02-18T05:56:29.533Z,-2.90
2019-02-18T05:59:21.253Z,-2.90
2019-02-18T06:02:09.071Z,-2.90
2019-02-18T06:04:57.622Z,-2.90
2019-02-18T06:07:45.869Z,-2.80
2019-02-18T06:10:34.092Z,-2.80
2019-02-18T06:13:23.219Z,-2.80
2019-02-18T06:16:11.281Z,-2.80
2019-02-18T06:19:00.016Z,-2.80
2019-02-18T06:21:48.422Z,-2.70
2019-02-18T06:24:36.973Z,-2.70
2019-02-18T06:27:24.988Z,-2.70
2019-02-18T06:30:13.108Z,-2.60
2019-02-18T06:33:01.299Z,-2.60
2019-02-18T06:35:49.140Z,-2.60
2019-02-18T06:44:09.262Z,-2.40
2019-02-18T06:49:45.825Z,-2.30
2019-02-18T06:52:34.281Z,-2.30
2019-02-18T06:55:22.185Z,-2.20
2019-02-18T07:01:59.715Z,-2.20
2019-02-18T07:10:49.662Z,-2.10
2019-02-18T07:13:38.326Z,-2.00
2019-02-18T07:16:26.242Z,-2.00
2019-02-18T07:19:14.721Z,-1.90
2019-02-18T07:22:02.725Z,-1.90
2019-02-18T07:24:50.774Z,-1.80
2019-02-18T07:27:39.300Z,-1.80
2019-02-18T07:30:27.022Z,-1.70
2019-02-18T07:33:15.510Z,-1.70
2019-02-18T07:36:04.132Z,-1.60
2019-02-18T07:38:52.071Z,-1.50
2019-02-18T07:41:40.577Z,-1.40
2019-02-18T07:44:31.422Z,-1.40
2019-02-18T07:47:19.850Z,-1.30
2019-02-18T07:50:08.546Z,-1.20
2019-02-18T07:52:56.802Z,-1.10
2019-02-18T07:55:44.766Z,-1.00
2019-02-18T07:58:32.918Z,-0.90
2019-02-18T08:01:20.932Z,-0.80
2019-02-18T08:04:08.871Z,-0.60
2019-02-18T08:06:57.239Z,-0.50
2019-02-18T08:09:45.195Z,-0.50
2019-02-18T08:12:33.625Z,-0.40
2019-02-18T08:15:21.857Z,-0.30
2019-02-18T08:18:09.835Z,-0.20
2019-02-18T08:20:57.891Z,-0.10
2019-02-18T08:23:46.345Z,0.00
2019-02-18T08:26:34.515Z,0.10
2019-02-18T08:29:22.523Z,0.20
2019-02-18T08:32:11.083Z,0.30
2019-02-18T08:34:59.176Z,0.50
2019-02-18T08:37:47.148Z,0.60
2019-02-18T08:40:35.194Z,0.80
2019-02-18T08:43:23.061Z,1.00
2019-02-18T08:46:10.972Z,1.30
2019-02-18T08:48:59.167Z,1.60
2019-02-18T08:51:47.080Z,1.90
2019-02-18T08:54:35.153Z,2.20
2019-02-18T08:57:24.487Z,2.60
2019-02-18T09:00:12.470Z,2.90
2019-02-18T09:03:00.327Z,3.30
2019-02-18T09:05:48.443Z,3.60
2019-02-18T09:08:36.447Z,3.90
2019-02-18T09:11:24.351Z,4.20
2019-02-18T09:14:12.393Z,4.50
2019-02-18T09:17:00.912Z,4.90
2019-02-18T09:19:48.910Z,5.20
2019-02-18T09:26:03.474Z,6.00
2019-02-18T09:28:51.864Z,6.40
2019-02-18T09:31:39.859Z,6.70
2019-02-18T09:34:28.152Z,7.10
2019-02-18T09:37:16.474Z,7.50
2019-02-18T09:40:05.242Z,7.90
2019-02-18T09:42:53.115Z,8.30
2019-02-18T09:45:41.177Z,8.80
2019-02-18T09:48:29.036Z,9.20
2019-02-18T09:51:17.334Z,9.60
2019-02-18T09:54:05.421Z,10.00
2019-02-18T09:56:53.290Z,10.50
2019-02-18T09:59:41.248Z,10.90
2019-02-18T10:02:30.143Z,11.20
2019-02-18T10:05:18.054Z,11.60
2019-02-18T10:08:06.460Z,11.90
2019-02-18T10:10:56.132Z,12.20
2019-02-18T10:13:44.472Z,12.50
2019-02-18T10:16:33.094Z,12.90
2019-02-18T10:19:21.538Z,13.20
2019-02-18T10:22:09.388Z,13.40
2019-02-18T10:24:58.079Z,13.70
2019-02-18T10:27:45.915Z,14.00
2019-02-18T10:30:33.347Z,14.20
2019-02-18T10:33:22.008Z,14.40
2019-02-18T10:36:10.129Z,14.60
2019-02-18T10:38:58.835Z,14.80
2019-02-18T10:41:47.569Z,15.00
2019-02-18T10:44:35.559Z,15.20
2019-02-18T10:47:23.745Z,15.30
2019-02-18T10:50:11.705Z,15.40
2019-02-18T10:53:00.126Z,15.60
2019-02-18T10:55:48.633Z,15.70
2019-02-18T10:58:36.900Z,15.90
2019-02-18T11:01:25.543Z,16.10
2019-02-18T11:04:14.167Z,16.30
2019-02-18T11:07:02.230Z,16.40
2019-02-18T11:09:50.088Z,16.60
2019-02-18T11:12:38.539Z,16.80
2019-02-18T11:18:46.231Z,17.10
2019-02-18T11:21:34.250Z,17.20
2019-02-18T11:24:22.262Z,17.20
2019-02-18T11:27:10.356Z,17.30
2019-02-18T11:29:58.528Z,17.40
2019-02-18T11:32:46.318Z,17.40
2019-02-18T11:35:34.948Z,17.50
2019-02-18T11:38:23.307Z,17.60
2019-02-18T11:41:11.119Z,17.70
2019-02-18T11:43:59.685Z,17.80
2019-02-18T11:46:48.167Z,17.90
2019-02-18T11:49:37.387Z,18.00
2019-02-18T11:52:25.612Z,18.10
2019-02-18T11:55:13.728Z,18.10
2019-02-18T11:58:02.355Z,18.20
2019-02-18T12:00:50.583Z,18.20
2019-02-18T12:03:39.096Z,18.20
2019-02-18T12:06:27.135Z,18.20
2019-02-18T12:09:17.728Z,18.30
2019-02-18T12:12:05.860Z,18.30
2019-02-18T12:14:53.879Z,18.30
2019-02-18T12:17:42.145Z,18.40
2019-02-18T12:20:30.835Z,18.40
2019-02-18T12:23:18.912Z,18.40
2019-02-18T12:26:07.211Z,18.40
2019-02-18T12:28:55.197Z,18.50
2019-02-18T12:31:43.021Z,18.50
2019-02-18T12:34:30.977Z,18.60
2019-02-18T12:37:19.059Z,18.70
2019-02-18T12:40:07.727Z,18.70
2019-02-18T12:42:56.348Z,18.80
2019-02-18T12:45:44.823Z,18.80
2019-02-18T12:48:35.277Z,18.80
2019-02-18T12:51:22.808Z,18.90
2019-02-18T12:54:10.804Z,18.90
2019-02-18T12:56:59.134Z,19.00
2019-02-18T12:59:47.764Z,19.00
2019-02-18T13:02:43.753Z,19.10
2019-02-18T13:05:27.323Z,19.10
2019-02-18T13:08:15.938Z,19.10
2019-02-18T13:11:04.162Z,19.10
2019-02-18T13:13:52.176Z,19.10
2019-02-18T13:16:40.207Z,19.10
2019-02-18T13:19:28.503Z,19.20
2019-02-18T13:22:16.580Z,19.20
2019-02-18T13:25:04.760Z,19.30
2019-02-18T13:27:52.804Z,19.40
2019-02-18T13:30:40.904Z,19.50
2019-02-18T13:33:29.382Z,19.50
2019-02-18T13:36:17.756Z,19.50
2019-02-18T13:39:06.149Z,19.60
2019-02-18T13:41:54.392Z,19.70
2019-02-18T13:44:42.621Z,19.80
2019-02-18T13:47:31.364Z,19.90
2019-02-18T13:50:20.148Z,20.00
2019-02-18T13:53:08.367Z,20.10
2019-02-18T13:55:56.984Z,20.10
2019-02-18T13:58:44.855Z,20.30
2019-02-18T14:01:33.382Z,20.40
2019-02-18T14:04:21.844Z,20.50
2019-02-18T14:07:10.385Z,20.50
2019-02-18T14:09:58.997Z,20.50
2019-02-18T14:12:47.096Z,20.30
2019-02-18T14:15:35.443Z,20.20
2019-02-18T14:18:23.666Z,20.20
2019-02-18T14:21:11.876Z,20.10
2019-02-18T14:23:59.635Z,20.00
2019-02-18T14:26:47.607Z,19.90
2019-02-18T14:29:36.126Z,19.70
2019-02-18T14:32:25.086Z,19.60
2019-02-18T14:35:13.247Z,19.40
2019-02-18T14:38:01.021Z,19.20
2019-02-18T14:40:49.637Z,19.00
2019-02-18T14:43:38.425Z,18.80
2019-02-18T14:46:26.552Z,18.60
2019-02-18T14:49:14.777Z,18.40
2019-02-18T14:52:03.198Z,18.20
2019-02-18T14:54:51.662Z,18.00
2019-02-18T14:57:40.470Z,17.80
2019-02-18T15:00:28.970Z,17.60
2019-02-18T15:03:17.528Z,17.40
2019-02-18T15:06:05.697Z,17.20
2019-02-18T15:08:54.008Z,17.00
2019-02-18T15:11:42.419Z,16.80
2019-02-18T15:14:30.605Z,16.60
2019-02-18T15:17:18.493Z,16.40
2019-02-18T15:20:06.758Z,16.20
2019-02-18T15:25:40.845Z,15.90
2019-02-18T15:28:29.252Z,15.70
2019-02-18T15:31:17.890Z,15.50
2019-02-18T15:34:06.630Z,15.30
2019-02-18T15:36:54.576Z,15.20
2019-02-18T15:39:42.866Z,15.10
2019-02-18T15:42:31.879Z,14.90
2019-02-18T15:45:20.402Z,14.80
2019-02-18T15:48:08.321Z,14.60
2019-02-18T15:50:56.714Z,14.50
2019-02-18T15:53:44.855Z,14.30
2019-02-18T15:56:33.276Z,14.20
2019-02-18T15:59:21.327Z,14.00
2019-02-18T16:02:09.315Z,13.80
2019-02-18T16:04:57.211Z,13.70
2019-02-18T16:07:45.292Z,13.40
2019-02-18T16:10:33.564Z,13.20
2019-02-18T16:13:21.880Z,13.00
2019-02-18T16:16:10.460Z,12.70
2019-02-18T16:18:58.464Z,12.50
2019-02-18T16:21:46.719Z,12.30
2019-02-18T16:24:34.572Z,12.00
2019-02-18T16:27:22.580Z,11.80
2019-02-18T16:30:10.379Z,11.50
2019-02-18T16:32:58.428Z,11.20
2019-02-18T16:35:46.613Z,11.00
2019-02-18T16:38:35.081Z,10.70
2019-02-18T16:41:23.325Z,10.50
2019-02-18T16:44:11.839Z,10.20
2019-02-18T16:46:59.729Z,10.00
2019-02-18T16:49:47.833Z,9.70
2019-02-18T16:52:36.530Z,9.50
2019-02-18T16:55:24.944Z,9.30
2019-02-18T16:58:13.831Z,9.00
2019-02-18T17:01:02.077Z,8.80
2019-02-18T17:06:43.169Z,8.30
2019-02-18T17:09:31.644Z,8.10
2019-02-18T17:12:22.420Z,7.90
2019-02-18T17:15:10.507Z,7.70
2019-02-18T17:17:58.413Z,7.50
2019-02-18T17:23:32.223Z,7.20
2019-02-18T17:29:13.294Z,6.80
2019-02-18T17:34:54.631Z,6.40
2019-02-18T17:40:35.682Z,6.10
2019-02-18T17:43:26.600Z,5.90
2019-02-18T17:46:14.980Z,5.70
2019-02-18T17:49:03.498Z,5.60
2019-02-18T17:51:51.872Z,5.40
2019-02-18T17:54:40.802Z,5.20
2019-02-18T17:57:29.418Z,5.00
2019-02-18T18:00:18.507Z,4.90
2019-02-18T18:03:06.399Z,4.80
2019-02-18T18:05:55.018Z,4.60
2019-02-18T18:08:43.492Z,4.50
2019-02-18T18:11:32.249Z,4.40
2019-02-18T18:14:20.509Z,4.20
2019-02-18T18:17:09.121Z,4.10
2019-02-18T18:19:57.024Z,4.00
2019-02-18T18:22:45.246Z,3.80
2019-02-18T18:25:33.344Z,3.70
2019-02-18T18:28:21.728Z,3.70
2019-02-18T18:31:10.325Z,3.50
2019-02-18T18:33:58.215Z,3.50
2019-02-18T18:36:46.387Z,3.40
2019-02-18T18:39:34.405Z,3.30
2019-02-18T18:42:22.431Z,3.30
2019-02-18T18:45:10.549Z,3.20
2019-02-18T18:47:58.827Z,3.20
2019-02-18T18:50:47.501Z,3.10
2019-02-18T18:53:35.441Z,3.10
2019-02-18T18:56:23.504Z,3.00
2019-02-18T18:59:12.109Z,2.90
2019-02-18T19:02:00.219Z,2.90
2019-02-18T19:04:48.292Z,2.80
2019-02-18T19:07:37.056Z,2.60
2019-02-18T19:10:25.215Z,2.50
2019-02-18T19:22:08.533Z,2.20
2019-02-18T19:22:49.619Z,2.50
2019-02-18T19:24:56.838Z,2.20
2019-02-18T19:27:45.274Z,2.20
2019-02-18T19:30:34.117Z,2.10
2019-02-18T19:33:23.029Z,2.10
2019-02-18T19:36:11.338Z,2.10
2019-02-18T19:38:59.396Z,2.00
2019-02-18T19:41:47.953Z,2.00
2019-02-18T19:44:36.691Z,1.90
2019-02-18T19:47:24.914Z,1.90
2019-02-18T19:50:13.537Z,1.90
2019-02-18T19:53:01.273Z,1.90
2019-02-18T19:55:49.981Z,1.80
2019-02-18T19:58:38.615Z,1.80
2019-02-18T20:01:41.824Z,1.70
2019-02-18T20:04:29.814Z,1.70
2019-02-18T20:07:18.526Z,1.60
2019-02-18T20:10:07.126Z,1.60
2019-02-18T20:12:55.331Z,1.50
2019-02-18T20:15:43.921Z,1.50
2019-02-18T20:18:32.540Z,1.40
2019-02-18T20:21:20.214Z,1.40
2019-02-18T20:24:09.029Z,1.30
2019-02-18T20:26:58.390Z,1.30
2019-02-18T20:29:46.947Z,1.30
2019-02-18T20:32:35.256Z,1.20
2019-02-18T20:35:23.944Z,1.20
2019-02-18T20:38:12.079Z,1.20
2019-02-18T20:41:00.647Z,1.10
2019-02-18T20:43:49.600Z,1.10
2019-02-18T20:46:38.024Z,1.10
2019-02-18T20:49:26.331Z,1.00
2019-02-18T20:52:16.947Z,1.00
2019-02-18T20:55:05.804Z,1.00
2019-02-18T20:57:53.815Z,0.90
2019-02-18T21:00:42.497Z,1.00
2019-02-18T21:03:32.697Z,1.00
2019-02-18T21:09:12.590Z,0.90
2019-02-18T21:12:00.646Z,0.90
2019-02-18T21:14:48.564Z,0.90
2019-02-18T21:17:39.328Z,0.90
2019-02-18T21:20:27.927Z,0.90
2019-02-18T21:23:16.939Z,0.90
2019-02-18T21:26:05.206Z,0.90
2019-02-18T21:28:56.517Z,0.80
2019-02-18T21:34:37.160Z,0.80
2019-02-18T21:37:24.914Z,0.80
2019-02-18T21:40:13.356Z,0.80
2019-02-18T21:43:01.527Z,0.70
2019-02-18T21:45:50.249Z,0.70
2019-02-18T21:48:38.448Z,0.70
2019-02-18T21:51:27.064Z,0.70
2019-02-18T21:54:15.686Z,0.70
2019-02-18T21:57:03.604Z,0.70
2019-02-18T21:59:52.632Z,0.70
2019-02-18T22:08:37.394Z,0.80
2019-02-18T22:14:43.205Z,0.80
2019-02-18T22:17:10.146Z,0.80
2019-02-18T22:19:58.724Z,0.80
2019-02-18T22:22:46.627Z,0.80
2019-02-18T22:25:35.129Z,0.80
2019-02-18T22:28:22.917Z,0.80
2019-02-18T22:31:10.875Z,0.80
2019-02-18T22:33:59.071Z,0.80
2019-02-18T22:36:46.977Z,0.80
2019-02-18T22:39:34.882Z,0.80
2019-02-18T22:42:22.813Z,0.70
2019-02-18T22:45:11.109Z,0.70
2019-02-18T22:47:59.095Z,0.70
2019-02-18T22:50:47.559Z,0.70
2019-02-18T22:53:38.934Z,0.60
2019-02-18T22:56:27.296Z,0.60
2019-02-18T22:59:15.369Z,0.60
2019-02-18T23:02:03.462Z,0.50
2019-02-18T23:04:51.325Z,0.50
2019-02-18T23:07:39.232Z,0.50
2019-02-18T23:10:27.592Z,0.50
2019-02-18T23:13:15.592Z,0.50
2019-02-18T23:16:03.988Z,0.50
2019-02-18T23:18:51.835Z,0.40
2019-02-18T23:21:40.739Z,0.40
2019-02-18T23:24:28.866Z,0.40
2019-02-18T23:27:16.783Z,0.40
2019-02-18T23:30:04.650Z,0.40
2019-02-18T23:32:52.754Z,0.30
2019-02-18T23:35:40.961Z,0.30
2019-02-18T23:38:28.839Z,0.20
2019-02-18T23:41:17.147Z,0.20
2019-02-18T23:44:05.423Z,0.20
2019-02-18T23:46:53.797Z,0.20
2019-02-18T23:49:42.453Z,0.20
2019-02-18T23:52:30.942Z,0.20
2019-02-18T23:55:19.512Z,0.30
2019-02-18T23:58:07.570Z,0.40
